sensor_id;sensor_type;location;lat;lon;timestamp;temperature;humidity
52543;DHT22;38449;52.696;6.186;2023-08-12T00:00:48;20.50;99.90
52543;DHT22;38449;52.696;6.186;2023-08-12T00:03:14;20.40;99.90
52543;DHT22;38449;52.696;6.186;2023-08-12T00:05:42;20.40;99.90
52543;DHT22;38449;52.696;6.186;2023-08-12T00:08:09;20.40;99.90
52543;DHT22;38449;52.696;6.186;2023-08-12T00:10:35;20.30;99.90
52543;DHT22;38449;52.696;6.186;2023-08-12T00:13:01;20.40;99.90
52543;DHT22;38449;52.696;6.186;2023-08-12T00:15:28;20.40;99.90
52543;DHT22;38449;52.696;6.186;2023-08-12T00:17:56;20.40;99.90
52543;DHT22;38449;52.696;6.186;2023-08-12T00:20:23;20.50;99.90
52543;DHT22;38449;52.696;6.186;2023-08-12T00:22:50;20.20;99.90
52543;DHT22;38449;52.696;6.186;2023-08-12T00:25:16;20.30;99.90
52543;DHT22;38449;52.696;6.186;2023-08-12T00:27:43;20.20;99.90
52543;DHT22;38449;52.696;6.186;2023-08-12T00:30:09;20.30;99.90
52543;DHT22;38449;52.696;6.186;2023-08-12T00:32:35;20.20;99.90
52543;DHT22;38449;52.696;6.186;2023-08-12T00:35:02;20.20;99.90
52543;DHT22;38449;52.696;6.186;2023-08-12T00:37:29;20.20;99.90
52543;DHT22;38449;52.696;6.186;2023-08-12T00:39:55;20.20;99.90
52543;DHT22;38449;52.696;6.186;2023-08-12T00:42:21;20.20;99.90
52543;DHT22;38449;52.696;6.186;2023-08-12T00:44:48;20.10;99.90
52543;DHT22;38449;52.696;6.186;2023-08-12T00:47:16;20.10;99.90
52543;DHT22;38449;52.696;6.186;2023-08-12T00:49:44;20.20;99.90
52543;DHT22;38449;52.696;6.186;2023-08-12T00:52:15;20.00;99.90
52543;DHT22;38449;52.696;6.186;2023-08-12T00:54:42;20.10;99.90
52543;DHT22;38449;52.696;6.186;2023-08-12T00:57:09;20.10;99.90
52543;DHT22;38449;52.696;6.186;2023-08-12T00:59:36;20.10;99.90
52543;DHT22;38449;52.696;6.186;2023-08-12T01:02:05;20.00;99.90
52543;DHT22;38449;52.696;6.186;2023-08-12T01:04:31;20.00;99.90
52543;DHT22;38449;52.696;6.186;2023-08-12T01:06:58;20.10;99.90
52543;DHT22;38449;52.696;6.186;2023-08-12T01:09:24;20.00;99.90
52543;DHT22;38449;52.696;6.186;2023-08-12T01:12:02;20.00;99.90
52543;DHT22;38449;52.696;6.186;2023-08-12T01:14:50;19.90;99.90
52543;DHT22;38449;52.696;6.186;2023-08-12T01:17:17;20.00;99.90
52543;DHT22;38449;52.696;6.186;2023-08-12T01:20:00;19.90;99.90
52543;DHT22;38449;52.696;6.186;2023-08-12T01:22:30;19.90;99.90
52543;DHT22;38449;52.696;6.186;2023-08-12T01:24:58;19.80;99.90
52543;DHT22;38449;52.696;6.186;2023-08-12T01:27:26;19.80;99.90
52543;DHT22;38449;52.696;6.186;2023-08-12T01:29:53;19.80;99.90
52543;DHT22;38449;52.696;6.186;2023-08-12T01:32:37;19.90;99.90
52543;DHT22;38449;52.696;6.186;2023-08-12T01:35:15;19.70;99.90
52543;DHT22;38449;52.696;6.186;2023-08-12T01:37:50;19.70;99.90
52543;DHT22;38449;52.696;6.186;2023-08-12T01:40:19;19.70;99.90
52543;DHT22;38449;52.696;6.186;2023-08-12T01:42:46;19.70;99.90
52543;DHT22;38449;52.696;6.186;2023-08-12T01:45:14;19.70;99.90
52543;DHT22;38449;52.696;6.186;2023-08-12T01:47:43;19.70;99.90
52543;DHT22;38449;52.696;6.186;2023-08-12T01:50:10;19.80;99.90
52543;DHT22;38449;52.696;6.186;2023-08-12T01:52:38;19.70;99.90
52543;DHT22;38449;52.696;6.186;2023-08-12T01:55:05;19.60;99.90
52543;DHT22;38449;52.696;6.186;2023-08-12T01:57:33;19.60;99.90
52543;DHT22;38449;52.696;6.186;2023-08-12T02:00:01;19.70;99.90
52543;DHT22;38449;52.696;6.186;2023-08-12T02:02:28;19.60;99.90
52543;DHT22;38449;52.696;6.186;2023-08-12T02:04:54;19.70;99.90
52543;DHT22;38449;52.696;6.186;2023-08-12T02:07:21;19.60;99.90
52543;DHT22;38449;52.696;6.186;2023-08-12T02:09:47;19.60;99.90
52543;DHT22;38449;52.696;6.186;2023-08-12T02:12:14;19.60;99.90
52543;DHT22;38449;52.696;6.186;2023-08-12T02:14:40;19.60;99.90
52543;DHT22;38449;52.696;6.186;2023-08-12T02:17:06;19.60;99.90
52543;DHT22;38449;52.696;6.186;2023-08-12T02:19:35;19.60;99.90
52543;DHT22;38449;52.696;6.186;2023-08-12T02:22:02;19.60;99.90
52543;DHT22;38449;52.696;6.186;2023-08-12T02:24:30;19.70;99.90
52543;DHT22;38449;52.696;6.186;2023-08-12T02:26:57;19.70;99.90
52543;DHT22;38449;52.696;6.186;2023-08-12T02:29:24;19.70;99.90
52543;DHT22;38449;52.696;6.186;2023-08-12T02:31:52;19.70;99.90
52543;DHT22;38449;52.696;6.186;2023-08-12T02:34:21;19.70;99.90
52543;DHT22;38449;52.696;6.186;2023-08-12T02:36:48;19.70;99.90
52543;DHT22;38449;52.696;6.186;2023-08-12T02:39:16;19.80;99.90
52543;DHT22;38449;52.696;6.186;2023-08-12T02:41:42;19.70;99.90
52543;DHT22;38449;52.696;6.186;2023-08-12T02:44:09;19.70;99.90
52543;DHT22;38449;52.696;6.186;2023-08-12T02:46:35;19.80;99.90
52543;DHT22;38449;52.696;6.186;2023-08-12T02:49:01;19.80;99.90
52543;DHT22;38449;52.696;6.186;2023-08-12T02:51:28;19.90;99.90
52543;DHT22;38449;52.696;6.186;2023-08-12T02:53:54;19.80;99.90
52543;DHT22;38449;52.696;6.186;2023-08-12T02:56:23;19.80;99.90
52543;DHT22;38449;52.696;6.186;2023-08-12T02:58:51;19.90;99.90
52543;DHT22;38449;52.696;6.186;2023-08-12T03:01:19;19.90;99.90
52543;DHT22;38449;52.696;6.186;2023-08-12T03:03:46;19.90;99.90
52543;DHT22;38449;52.696;6.186;2023-08-12T03:06:12;20.00;99.90
52543;DHT22;38449;52.696;6.186;2023-08-12T03:08:39;19.90;99.90
52543;DHT22;38449;52.696;6.186;2023-08-12T03:11:06;20.00;99.90
52543;DHT22;38449;52.696;6.186;2023-08-12T03:13:47;19.90;99.90
52543;DHT22;38449;52.696;6.186;2023-08-12T03:16:14;19.90;99.90
52543;DHT22;38449;52.696;6.186;2023-08-12T03:18:41;19.90;99.90
52543;DHT22;38449;52.696;6.186;2023-08-12T03:21:10;20.00;99.90
52543;DHT22;38449;52.696;6.186;2023-08-12T03:23:37;20.00;99.90
52543;DHT22;38449;52.696;6.186;2023-08-12T03:26:05;20.00;99.90
52543;DHT22;38449;52.696;6.186;2023-08-12T03:28:31;20.10;99.90
52543;DHT22;38449;52.696;6.186;2023-08-12T03:30:58;20.00;99.90
52543;DHT22;38449;52.696;6.186;2023-08-12T03:33:25;19.90;99.90
52543;DHT22;38449;52.696;6.186;2023-08-12T03:35:52;20.00;99.90
52543;DHT22;38449;52.696;6.186;2023-08-12T03:38:21;20.00;99.90
52543;DHT22;38449;52.696;6.186;2023-08-12T03:40:50;20.00;99.90
52543;DHT22;38449;52.696;6.186;2023-08-12T03:43:18;20.00;99.90
52543;DHT22;38449;52.696;6.186;2023-08-12T03:45:47;20.00;99.90
52543;DHT22;38449;52.696;6.186;2023-08-12T03:48:15;20.00;99.90
52543;DHT22;38449;52.696;6.186;2023-08-12T03:50:43;20.00;99.90
52543;DHT22;38449;52.696;6.186;2023-08-12T03:53:11;20.00;99.90
52543;DHT22;38449;52.696;6.186;2023-08-12T03:55:38;20.10;99.90
52543;DHT22;38449;52.696;6.186;2023-08-12T03:58:05;20.00;99.90
52543;DHT22;38449;52.696;6.186;2023-08-12T04:00:32;20.00;99.90
52543;DHT22;38449;52.696;6.186;2023-08-12T04:02:58;20.10;99.90
52543;DHT22;38449;52.696;6.186;2023-08-12T04:05:28;20.10;99.90
52543;DHT22;38449;52.696;6.186;2023-08-12T04:08:01;20.00;99.90
52543;DHT22;38449;52.696;6.186;2023-08-12T04:10:28;20.00;99.90
52543;DHT22;38449;52.696;6.186;2023-08-12T04:12:54;19.90;99.90
52543;DHT22;38449;52.696;6.186;2023-08-12T04:15:21;20.00;99.90
52543;DHT22;38449;52.696;6.186;2023-08-12T04:17:48;20.10;99.90
52543;DHT22;38449;52.696;6.186;2023-08-12T04:20:15;20.00;99.90
52543;DHT22;38449;52.696;6.186;2023-08-12T04:22:43;20.00;99.90
52543;DHT22;38449;52.696;6.186;2023-08-12T04:25:10;20.10;99.90
52543;DHT22;38449;52.696;6.186;2023-08-12T04:27:36;20.00;99.90
52543;DHT22;38449;52.696;6.186;2023-08-12T04:30:04;19.90;99.90
52543;DHT22;38449;52.696;6.186;2023-08-12T04:32:30;19.90;99.90
52543;DHT22;38449;52.696;6.186;2023-08-12T04:34:57;19.90;99.90
52543;DHT22;38449;52.696;6.186;2023-08-12T04:37:23;20.00;99.90
52543;DHT22;38449;52.696;6.186;2023-08-12T04:39:50;20.00;99.90
52543;DHT22;38449;52.696;6.186;2023-08-12T04:42:17;20.00;99.90
52543;DHT22;38449;52.696;6.186;2023-08-12T04:44:43;20.10;99.90
52543;DHT22;38449;52.696;6.186;2023-08-12T04:47:09;20.10;99.90
52543;DHT22;38449;52.696;6.186;2023-08-12T04:49:36;20.10;99.90
52543;DHT22;38449;52.696;6.186;2023-08-12T04:52:02;20.00;99.90
52543;DHT22;38449;52.696;6.186;2023-08-12T04:54:28;19.90;99.90
52543;DHT22;38449;52.696;6.186;2023-08-12T04:56:54;20.10;99.90
52543;DHT22;38449;52.696;6.186;2023-08-12T04:59:22;20.10;99.90
52543;DHT22;38449;52.696;6.186;2023-08-12T05:01:48;20.10;99.90
52543;DHT22;38449;52.696;6.186;2023-08-12T05:04:17;20.10;99.90
52543;DHT22;38449;52.696;6.186;2023-08-12T05:06:43;20.10;99.90
52543;DHT22;38449;52.696;6.186;2023-08-12T05:09:10;20.10;99.90
52543;DHT22;38449;52.696;6.186;2023-08-12T05:11:36;20.20;99.90
52543;DHT22;38449;52.696;6.186;2023-08-12T05:14:02;20.30;99.90
52543;DHT22;38449;52.696;6.186;2023-08-12T05:16:28;20.30;99.90
52543;DHT22;38449;52.696;6.186;2023-08-12T05:18:55;20.50;99.90
52543;DHT22;38449;52.696;6.186;2023-08-12T05:21:21;20.50;99.90
52543;DHT22;38449;52.696;6.186;2023-08-12T05:23:48;20.50;99.90
52543;DHT22;38449;52.696;6.186;2023-08-12T05:26:15;20.60;99.90
52543;DHT22;38449;52.696;6.186;2023-08-12T05:28:41;20.70;99.90
52543;DHT22;38449;52.696;6.186;2023-08-12T05:31:08;20.60;99.90
52543;DHT22;38449;52.696;6.186;2023-08-12T05:33:34;20.70;99.90
52543;DHT22;38449;52.696;6.186;2023-08-12T05:36:03;20.80;99.90
52543;DHT22;38449;52.696;6.186;2023-08-12T05:38:44;20.80;99.90
52543;DHT22;38449;52.696;6.186;2023-08-12T05:41:10;20.70;99.90
52543;DHT22;38449;52.696;6.186;2023-08-12T05:43:37;20.80;99.90
52543;DHT22;38449;52.696;6.186;2023-08-12T05:46:03;20.80;99.90
52543;DHT22;38449;52.696;6.186;2023-08-12T05:48:30;20.80;99.90
52543;DHT22;38449;52.696;6.186;2023-08-12T05:50:56;20.80;99.90
52543;DHT22;38449;52.696;6.186;2023-08-12T05:53:23;20.90;99.90
52543;DHT22;38449;52.696;6.186;2023-08-12T05:55:49;20.80;99.90
52543;DHT22;38449;52.696;6.186;2023-08-12T05:58:15;20.80;99.90
52543;DHT22;38449;52.696;6.186;2023-08-12T06:00:41;20.80;99.90
52543;DHT22;38449;52.696;6.186;2023-08-12T06:03:11;20.70;99.90
52543;DHT22;38449;52.696;6.186;2023-08-12T06:05:39;20.80;99.90
52543;DHT22;38449;52.696;6.186;2023-08-12T06:08:06;20.80;99.90
52543;DHT22;38449;52.696;6.186;2023-08-12T06:10:33;20.80;99.90
52543;DHT22;38449;52.696;6.186;2023-08-12T06:12:59;20.70;99.90
52543;DHT22;38449;52.696;6.186;2023-08-12T06:15:26;20.80;99.90
52543;DHT22;38449;52.696;6.186;2023-08-12T06:17:52;20.80;99.90
52543;DHT22;38449;52.696;6.186;2023-08-12T06:20:18;20.60;99.90
52543;DHT22;38449;52.696;6.186;2023-08-12T06:22:44;20.80;99.90
52543;DHT22;38449;52.696;6.186;2023-08-12T06:25:11;20.80;99.90
52543;DHT22;38449;52.696;6.186;2023-08-12T06:27:37;20.80;99.90
52543;DHT22;38449;52.696;6.186;2023-08-12T06:30:04;20.70;99.90
52543;DHT22;38449;52.696;6.186;2023-08-12T06:32:31;20.80;99.90
52543;DHT22;38449;52.696;6.186;2023-08-12T06:34:57;20.70;99.90
52543;DHT22;38449;52.696;6.186;2023-08-12T06:37:23;20.70;99.90
52543;DHT22;38449;52.696;6.186;2023-08-12T06:39:50;20.80;99.90
52543;DHT22;38449;52.696;6.186;2023-08-12T06:42:17;20.70;99.90
52543;DHT22;38449;52.696;6.186;2023-08-12T06:44:45;20.90;99.90
52543;DHT22;38449;52.696;6.186;2023-08-12T06:47:11;20.80;99.90
52543;DHT22;38449;52.696;6.186;2023-08-12T06:49:38;20.80;99.90
52543;DHT22;38449;52.696;6.186;2023-08-12T06:52:05;20.80;99.90
52543;DHT22;38449;52.696;6.186;2023-08-12T06:54:32;20.80;99.90
52543;DHT22;38449;52.696;6.186;2023-08-12T06:56:59;20.70;99.90
52543;DHT22;38449;52.696;6.186;2023-08-12T06:59:26;20.70;99.90
52543;DHT22;38449;52.696;6.186;2023-08-12T07:01:52;20.50;99.90
52543;DHT22;38449;52.696;6.186;2023-08-12T07:04:18;20.70;99.90
52543;DHT22;38449;52.696;6.186;2023-08-12T07:06:45;20.80;99.90
52543;DHT22;38449;52.696;6.186;2023-08-12T07:09:11;20.70;99.90
52543;DHT22;38449;52.696;6.186;2023-08-12T07:11:38;20.90;99.90
52543;DHT22;38449;52.696;6.186;2023-08-12T07:14:04;20.90;99.90
52543;DHT22;38449;52.696;6.186;2023-08-12T07:16:30;20.90;99.90
52543;DHT22;38449;52.696;6.186;2023-08-12T07:18:57;20.90;99.90
52543;DHT22;38449;52.696;6.186;2023-08-12T07:21:23;20.90;99.90
52543;DHT22;38449;52.696;6.186;2023-08-12T07:23:49;20.90;99.90
52543;DHT22;38449;52.696;6.186;2023-08-12T07:26:16;20.80;99.90
52543;DHT22;38449;52.696;6.186;2023-08-12T07:28:42;20.90;99.90
52543;DHT22;38449;52.696;6.186;2023-08-12T07:31:09;20.80;99.90
52543;DHT22;38449;52.696;6.186;2023-08-12T07:33:35;20.80;99.90
52543;DHT22;38449;52.696;6.186;2023-08-12T07:36:02;20.90;99.90
52543;DHT22;38449;52.696;6.186;2023-08-12T07:38:29;20.80;99.90
52543;DHT22;38449;52.696;6.186;2023-08-12T07:40:55;20.80;99.90
52543;DHT22;38449;52.696;6.186;2023-08-12T07:43:21;20.80;99.90
52543;DHT22;38449;52.696;6.186;2023-08-12T07:45:55;20.80;99.90
52543;DHT22;38449;52.696;6.186;2023-08-12T07:48:22;20.80;99.90
52543;DHT22;38449;52.696;6.186;2023-08-12T07:50:56;20.60;99.90
52543;DHT22;38449;52.696;6.186;2023-08-12T07:53:22;20.60;99.90
52543;DHT22;38449;52.696;6.186;2023-08-12T07:55:49;20.60;99.90
52543;DHT22;38449;52.696;6.186;2023-08-12T07:58:15;20.70;99.90
52543;DHT22;38449;52.696;6.186;2023-08-12T08:00:42;20.50;99.90
52543;DHT22;38449;52.696;6.186;2023-08-12T08:03:08;20.60;99.90
52543;DHT22;38449;52.696;6.186;2023-08-12T08:05:35;20.60;99.90
52543;DHT22;38449;52.696;6.186;2023-08-12T08:08:01;20.60;99.90
52543;DHT22;38449;52.696;6.186;2023-08-12T08:10:27;20.60;99.90
52543;DHT22;38449;52.696;6.186;2023-08-12T08:12:54;20.60;99.90
52543;DHT22;38449;52.696;6.186;2023-08-12T08:15:20;20.40;99.90
52543;DHT22;38449;52.696;6.186;2023-08-12T08:17:46;20.40;99.90
52543;DHT22;38449;52.696;6.186;2023-08-12T08:20:12;20.50;99.90
52543;DHT22;38449;52.696;6.186;2023-08-12T08:22:53;20.40;99.90
52543;DHT22;38449;52.696;6.186;2023-08-12T08:25:21;20.30;99.90
52543;DHT22;38449;52.696;6.186;2023-08-12T08:27:48;20.20;99.90
52543;DHT22;38449;52.696;6.186;2023-08-12T08:30:16;20.30;99.90
52543;DHT22;38449;52.696;6.186;2023-08-12T08:32:42;20.20;99.90
52543;DHT22;38449;52.696;6.186;2023-08-12T08:35:09;20.20;99.90
52543;DHT22;38449;52.696;6.186;2023-08-12T08:37:35;20.20;99.90
52543;DHT22;38449;52.696;6.186;2023-08-12T08:40:01;20.20;99.90
52543;DHT22;38449;52.696;6.186;2023-08-12T08:42:29;20.20;99.90
52543;DHT22;38449;52.696;6.186;2023-08-12T08:44:58;20.20;99.90
52543;DHT22;38449;52.696;6.186;2023-08-12T08:47:27;20.30;99.90
52543;DHT22;38449;52.696;6.186;2023-08-12T08:49:55;20.30;99.90
52543;DHT22;38449;52.696;6.186;2023-08-12T08:52:29;20.20;99.90
52543;DHT22;38449;52.696;6.186;2023-08-12T08:54:58;20.30;99.90
52543;DHT22;38449;52.696;6.186;2023-08-12T08:57:26;20.30;99.90
52543;DHT22;38449;52.696;6.186;2023-08-12T08:59:54;20.40;99.90
52543;DHT22;38449;52.696;6.186;2023-08-12T09:02:21;20.40;99.90
52543;DHT22;38449;52.696;6.186;2023-08-12T09:04:47;20.40;99.90
52543;DHT22;38449;52.696;6.186;2023-08-12T09:07:17;20.40;99.90
52543;DHT22;38449;52.696;6.186;2023-08-12T09:09:46;20.60;99.90
52543;DHT22;38449;52.696;6.186;2023-08-12T09:12:16;20.50;99.90
52543;DHT22;38449;52.696;6.186;2023-08-12T09:14:43;20.40;99.90
52543;DHT22;38449;52.696;6.186;2023-08-12T09:17:10;20.30;99.90
52543;DHT22;38449;52.696;6.186;2023-08-12T09:19:36;20.30;99.90
52543;DHT22;38449;52.696;6.186;2023-08-12T09:22:04;20.50;99.90
52543;DHT22;38449;52.696;6.186;2023-08-12T09:24:31;20.50;99.90
52543;DHT22;38449;52.696;6.186;2023-08-12T09:26:57;20.40;99.90
52543;DHT22;38449;52.696;6.186;2023-08-12T09:29:33;20.30;99.90
52543;DHT22;38449;52.696;6.186;2023-08-12T09:32:17;20.30;99.90
52543;DHT22;38449;52.696;6.186;2023-08-12T09:34:54;20.40;99.90
52543;DHT22;38449;52.696;6.186;2023-08-12T09:37:24;20.20;99.90
52543;DHT22;38449;52.696;6.186;2023-08-12T09:39:51;20.20;99.90
52543;DHT22;38449;52.696;6.186;2023-08-12T09:42:19;20.30;99.90
52543;DHT22;38449;52.696;6.186;2023-08-12T09:44:45;20.30;99.90
52543;DHT22;38449;52.696;6.186;2023-08-12T09:47:12;20.40;99.90
52543;DHT22;38449;52.696;6.186;2023-08-12T09:49:39;20.40;99.90
52543;DHT22;38449;52.696;6.186;2023-08-12T09:52:07;20.30;99.90
52543;DHT22;38449;52.696;6.186;2023-08-12T09:54:34;20.40;99.90
52543;DHT22;38449;52.696;6.186;2023-08-12T09:57:02;20.40;99.90
52543;DHT22;38449;52.696;6.186;2023-08-12T09:59:34;20.60;99.90
52543;DHT22;38449;52.696;6.186;2023-08-12T10:02:04;20.60;99.90
52543;DHT22;38449;52.696;6.186;2023-08-12T10:04:41;20.70;99.90
52543;DHT22;38449;52.696;6.186;2023-08-12T10:07:13;20.60;99.90
52543;DHT22;38449;52.696;6.186;2023-08-12T10:09:40;20.70;99.90
52543;DHT22;38449;52.696;6.186;2023-08-12T10:12:08;20.70;99.90
52543;DHT22;38449;52.696;6.186;2023-08-12T10:14:35;20.80;99.90
52543;DHT22;38449;52.696;6.186;2023-08-12T10:17:02;20.80;99.90
52543;DHT22;38449;52.696;6.186;2023-08-12T10:19:29;20.70;99.90
52543;DHT22;38449;52.696;6.186;2023-08-12T10:22:00;20.70;99.90
52543;DHT22;38449;52.696;6.186;2023-08-12T10:24:28;20.80;99.90
52543;DHT22;38449;52.696;6.186;2023-08-12T10:26:55;20.80;99.90
52543;DHT22;38449;52.696;6.186;2023-08-12T10:29:25;20.90;99.90
52543;DHT22;38449;52.696;6.186;2023-08-12T10:31:51;20.80;99.90
52543;DHT22;38449;52.696;6.186;2023-08-12T10:34:22;20.90;99.90
52543;DHT22;38449;52.696;6.186;2023-08-12T10:36:54;20.80;99.90
52543;DHT22;38449;52.696;6.186;2023-08-12T10:39:27;21.00;99.90
52543;DHT22;38449;52.696;6.186;2023-08-12T10:41:57;21.10;99.90
52543;DHT22;38449;52.696;6.186;2023-08-12T10:44:38;21.30;99.90
52543;DHT22;38449;52.696;6.186;2023-08-12T10:47:09;21.40;99.90
52543;DHT22;38449;52.696;6.186;2023-08-12T10:49:43;21.30;99.90
52543;DHT22;38449;52.696;6.186;2023-08-12T10:52:30;21.20;99.90
52543;DHT22;38449;52.696;6.186;2023-08-12T10:55:33;21.30;99.90
52543;DHT22;38449;52.696;6.186;2023-08-12T10:58:08;21.30;99.90
52543;DHT22;38449;52.696;6.186;2023-08-12T11:00:35;21.10;99.90
52543;DHT22;38449;52.696;6.186;2023-08-12T11:03:05;21.00;99.90
52543;DHT22;38449;52.696;6.186;2023-08-12T11:05:38;20.80;99.90
52543;DHT22;38449;52.696;6.186;2023-08-12T11:08:05;20.90;99.90
52543;DHT22;38449;52.696;6.186;2023-08-12T11:10:35;20.70;99.90
52543;DHT22;38449;52.696;6.186;2023-08-12T11:13:02;20.80;99.90
52543;DHT22;38449;52.696;6.186;2023-08-12T11:15:44;20.70;99.90
52543;DHT22;38449;52.696;6.186;2023-08-12T11:18:20;20.50;99.90
52543;DHT22;38449;52.696;6.186;2023-08-12T11:20:48;20.30;99.90
52543;DHT22;38449;52.696;6.186;2023-08-12T11:23:16;20.20;99.90
52543;DHT22;38449;52.696;6.186;2023-08-12T11:25:43;20.00;99.90
52543;DHT22;38449;52.696;6.186;2023-08-12T11:28:18;20.00;99.90
52543;DHT22;38449;52.696;6.186;2023-08-12T11:30:45;19.90;99.90
52543;DHT22;38449;52.696;6.186;2023-08-12T11:33:11;20.00;99.90
52543;DHT22;38449;52.696;6.186;2023-08-12T11:35:38;19.90;99.90
52543;DHT22;38449;52.696;6.186;2023-08-12T11:38:06;20.00;99.90
52543;DHT22;38449;52.696;6.186;2023-08-12T11:40:33;20.40;99.90
52543;DHT22;38449;52.696;6.186;2023-08-12T11:43:01;20.40;99.90
52543;DHT22;38449;52.696;6.186;2023-08-12T11:45:28;20.70;99.90
52543;DHT22;38449;52.696;6.186;2023-08-12T11:47:54;20.90;99.90
52543;DHT22;38449;52.696;6.186;2023-08-12T11:50:23;20.90;99.90
52543;DHT22;38449;52.696;6.186;2023-08-12T11:52:50;21.10;99.90
52543;DHT22;38449;52.696;6.186;2023-08-12T11:55:17;21.00;99.90
52543;DHT22;38449;52.696;6.186;2023-08-12T11:57:44;20.80;99.90
52543;DHT22;38449;52.696;6.186;2023-08-12T12:00:13;20.80;99.90
52543;DHT22;38449;52.696;6.186;2023-08-12T12:03:06;20.80;99.90
52543;DHT22;38449;52.696;6.186;2023-08-12T12:05:32;20.70;99.90
52543;DHT22;38449;52.696;6.186;2023-08-12T12:08:01;20.80;99.90
52543;DHT22;38449;52.696;6.186;2023-08-12T12:10:32;20.90;99.90
52543;DHT22;38449;52.696;6.186;2023-08-12T12:13:01;21.00;99.90
52543;DHT22;38449;52.696;6.186;2023-08-12T12:15:28;21.30;99.90
52543;DHT22;38449;52.696;6.186;2023-08-12T12:17:54;21.30;99.90
52543;DHT22;38449;52.696;6.186;2023-08-12T12:20:21;21.30;99.90
52543;DHT22;38449;52.696;6.186;2023-08-12T12:22:47;21.40;99.90
52543;DHT22;38449;52.696;6.186;2023-08-12T12:25:16;21.40;99.90
52543;DHT22;38449;52.696;6.186;2023-08-12T12:27:46;21.60;99.90
52543;DHT22;38449;52.696;6.186;2023-08-12T12:30:14;21.50;99.90
52543;DHT22;38449;52.696;6.186;2023-08-12T12:32:41;21.70;99.90
52543;DHT22;38449;52.696;6.186;2023-08-12T12:35:07;21.60;99.90
52543;DHT22;38449;52.696;6.186;2023-08-12T12:37:35;21.70;99.90
52543;DHT22;38449;52.696;6.186;2023-08-12T12:40:03;21.80;99.90
52543;DHT22;38449;52.696;6.186;2023-08-12T12:42:30;21.70;99.90
52543;DHT22;38449;52.696;6.186;2023-08-12T12:44:56;21.60;99.90
52543;DHT22;38449;52.696;6.186;2023-08-12T12:47:23;21.80;99.90
52543;DHT22;38449;52.696;6.186;2023-08-12T12:49:49;21.90;99.90
52543;DHT22;38449;52.696;6.186;2023-08-12T12:52:15;21.90;99.90
52543;DHT22;38449;52.696;6.186;2023-08-12T12:54:42;22.00;99.90
52543;DHT22;38449;52.696;6.186;2023-08-12T12:57:09;22.00;99.90
52543;DHT22;38449;52.696;6.186;2023-08-12T12:59:36;22.00;99.90
52543;DHT22;38449;52.696;6.186;2023-08-12T13:02:02;22.10;99.90
52543;DHT22;38449;52.696;6.186;2023-08-12T13:04:28;22.10;99.90
52543;DHT22;38449;52.696;6.186;2023-08-12T13:06:55;22.10;99.90
52543;DHT22;38449;52.696;6.186;2023-08-12T13:09:21;22.20;99.90
52543;DHT22;38449;52.696;6.186;2023-08-12T13:11:47;22.30;99.90
52543;DHT22;38449;52.696;6.186;2023-08-12T13:14:18;22.40;99.90
52543;DHT22;38449;52.696;6.186;2023-08-12T13:16:47;22.40;99.90
52543;DHT22;38449;52.696;6.186;2023-08-12T13:19:13;22.40;99.90
52543;DHT22;38449;52.696;6.186;2023-08-12T13:21:41;22.40;99.90
52543;DHT22;38449;52.696;6.186;2023-08-12T13:24:08;22.50;99.90
52543;DHT22;38449;52.696;6.186;2023-08-12T13:26:34;22.60;99.90
52543;DHT22;38449;52.696;6.186;2023-08-12T13:29:01;22.80;99.90
52543;DHT22;38449;52.696;6.186;2023-08-12T13:31:27;22.80;99.90
52543;DHT22;38449;52.696;6.186;2023-08-12T13:33:53;22.90;99.90
52543;DHT22;38449;52.696;6.186;2023-08-12T13:36:20;23.00;99.90
52543;DHT22;38449;52.696;6.186;2023-08-12T13:38:46;23.00;99.90
52543;DHT22;38449;52.696;6.186;2023-08-12T13:41:12;23.00;99.90
52543;DHT22;38449;52.696;6.186;2023-08-12T13:43:39;23.00;99.90
52543;DHT22;38449;52.696;6.186;2023-08-12T13:46:05;23.00;99.90
52543;DHT22;38449;52.696;6.186;2023-08-12T13:48:31;23.10;99.90
52543;DHT22;38449;52.696;6.186;2023-08-12T13:50:58;23.20;99.90
52543;DHT22;38449;52.696;6.186;2023-08-12T13:53:25;23.20;99.90
52543;DHT22;38449;52.696;6.186;2023-08-12T13:55:51;23.30;99.90
52543;DHT22;38449;52.696;6.186;2023-08-12T13:58:18;23.20;99.90
52543;DHT22;38449;52.696;6.186;2023-08-12T14:00:44;23.30;99.90
52543;DHT22;38449;52.696;6.186;2023-08-12T14:03:10;23.30;99.90
52543;DHT22;38449;52.696;6.186;2023-08-12T14:05:37;23.20;99.90
52543;DHT22;38449;52.696;6.186;2023-08-12T14:08:03;23.20;99.90
52543;DHT22;38449;52.696;6.186;2023-08-12T14:10:29;23.10;99.90
52543;DHT22;38449;52.696;6.186;2023-08-12T14:12:56;23.20;99.90
52543;DHT22;38449;52.696;6.186;2023-08-12T14:15:22;23.20;99.90
52543;DHT22;38449;52.696;6.186;2023-08-12T14:17:48;23.20;99.90
52543;DHT22;38449;52.696;6.186;2023-08-12T14:20:15;23.40;99.90
52543;DHT22;38449;52.696;6.186;2023-08-12T14:22:41;23.40;99.90
52543;DHT22;38449;52.696;6.186;2023-08-12T14:25:09;23.60;99.90
52543;DHT22;38449;52.696;6.186;2023-08-12T14:27:37;23.70;99.90
52543;DHT22;38449;52.696;6.186;2023-08-12T14:30:03;23.70;99.90
52543;DHT22;38449;52.696;6.186;2023-08-12T14:32:30;23.50;99.90
52543;DHT22;38449;52.696;6.186;2023-08-12T14:34:56;23.40;99.90
52543;DHT22;38449;52.696;6.186;2023-08-12T14:37:23;23.50;99.90
52543;DHT22;38449;52.696;6.186;2023-08-12T14:39:49;23.60;99.90
52543;DHT22;38449;52.696;6.186;2023-08-12T14:42:15;23.70;99.90
52543;DHT22;38449;52.696;6.186;2023-08-12T14:44:41;23.60;99.90
52543;DHT22;38449;52.696;6.186;2023-08-12T14:47:08;23.60;99.90
52543;DHT22;38449;52.696;6.186;2023-08-12T14:49:34;23.60;99.90
52543;DHT22;38449;52.696;6.186;2023-08-12T14:52:00;23.70;99.90
52543;DHT22;38449;52.696;6.186;2023-08-12T14:54:27;23.70;99.90
52543;DHT22;38449;52.696;6.186;2023-08-12T14:56:53;23.70;99.90
52543;DHT22;38449;52.696;6.186;2023-08-12T14:59:19;23.70;99.90
52543;DHT22;38449;52.696;6.186;2023-08-12T15:01:46;23.60;99.90
52543;DHT22;38449;52.696;6.186;2023-08-12T15:04:12;23.60;99.90
52543;DHT22;38449;52.696;6.186;2023-08-12T15:06:38;23.50;99.90
52543;DHT22;38449;52.696;6.186;2023-08-12T15:09:05;23.60;99.90
52543;DHT22;38449;52.696;6.186;2023-08-12T15:11:31;23.60;99.90
52543;DHT22;38449;52.696;6.186;2023-08-12T15:13:58;23.70;99.90
52543;DHT22;38449;52.696;6.186;2023-08-12T15:16:24;23.70;99.90
52543;DHT22;38449;52.696;6.186;2023-08-12T15:18:51;23.60;99.90
52543;DHT22;38449;52.696;6.186;2023-08-12T15:21:17;23.60;99.90
52543;DHT22;38449;52.696;6.186;2023-08-12T15:23:43;23.50;99.90
52543;DHT22;38449;52.696;6.186;2023-08-12T15:26:09;23.50;99.90
52543;DHT22;38449;52.696;6.186;2023-08-12T15:28:36;23.60;99.90
52543;DHT22;38449;52.696;6.186;2023-08-12T15:31:02;23.60;99.90
52543;DHT22;38449;52.696;6.186;2023-08-12T15:33:28;23.70;99.90